sensor_id;sensor_type;location;lat;lon;timestamp;P1;durP1;ratioP1;P2;durP2;ratioP2
52456;SDS011;38369;52.840;7.082;2022-12-07T00:01:44;20.23;;;8.45;;
52456;SDS011;38369;52.840;7.082;2022-12-07T00:04:11;9.20;;;6.20;;
52456;SDS011;38369;52.840;7.082;2022-12-07T00:06:41;11.52;;;5.90;;
52456;SDS011;38369;52.840;7.082;2022-12-07T00:09:09;10.75;;;5.80;;
52456;SDS011;38369;52.840;7.082;2022-12-07T00:11:36;11.23;;;5.95;;
52456;SDS011;38369;52.840;7.082;2022-12-07T00:14:03;10.57;;;4.95;;
52456;SDS011;38369;52.840;7.082;2022-12-07T00:16:30;13.05;;;5.43;;
52456;SDS011;38369;52.840;7.082;2022-12-07T00:18:56;8.20;;;4.95;;
52456;SDS011;38369;52.840;7.082;2022-12-07T00:21:24;9.50;;;4.28;;
52456;SDS011;38369;52.840;7.082;2022-12-07T00:23:51;9.93;;;4.18;;
52456;SDS011;38369;52.840;7.082;2022-12-07T00:26:18;6.57;;;4.00;;
52456;SDS011;38369;52.840;7.082;2022-12-07T00:28:45;6.63;;;3.80;;
52456;SDS011;38369;52.840;7.082;2022-12-07T00:31:12;14.32;;;3.88;;
52456;SDS011;38369;52.840;7.082;2022-12-07T00:33:38;6.70;;;3.40;;
52456;SDS011;38369;52.840;7.082;2022-12-07T00:36:14;8.52;;;4.13;;
52456;SDS011;38369;52.840;7.082;2022-12-07T00:38:41;6.55;;;3.67;;
52456;SDS011;38369;52.840;7.082;2022-12-07T00:41:10;6.13;;;3.33;;
52456;SDS011;38369;52.840;7.082;2022-12-07T00:43:36;8.95;;;3.30;;
52456;SDS011;38369;52.840;7.082;2022-12-07T00:46:02;11.00;;;3.92;;
52456;SDS011;38369;52.840;7.082;2022-12-07T00:48:29;8.20;;;3.17;;
52456;SDS011;38369;52.840;7.082;2022-12-07T00:50:55;10.85;;;3.75;;
52456;SDS011;38369;52.840;7.082;2022-12-07T00:53:21;8.80;;;3.13;;
52456;SDS011;38369;52.840;7.082;2022-12-07T00:55:47;6.20;;;3.22;;
52456;SDS011;38369;52.840;7.082;2022-12-07T00:58:13;10.35;;;2.92;;
52456;SDS011;38369;52.840;7.082;2022-12-07T01:00:40;14.27;;;3.67;;
52456;SDS011;38369;52.840;7.082;2022-12-07T01:03:07;7.15;;;2.80;;
52456;SDS011;38369;52.840;7.082;2022-12-07T01:05:33;9.95;;;2.78;;
52456;SDS011;38369;52.840;7.082;2022-12-07T01:08:00;8.77;;;2.90;;
52456;SDS011;38369;52.840;7.082;2022-12-07T01:10:26;9.48;;;3.05;;
52456;SDS011;38369;52.840;7.082;2022-12-07T01:12:52;7.80;;;2.30;;
52456;SDS011;38369;52.840;7.082;2022-12-07T01:15:18;9.52;;;2.65;;
52456;SDS011;38369;52.840;7.082;2022-12-07T01:17:44;10.93;;;3.53;;
52456;SDS011;38369;52.840;7.082;2022-12-07T01:20:10;9.73;;;2.75;;
52456;SDS011;38369;52.840;7.082;2022-12-07T01:22:40;10.85;;;2.65;;
52456;SDS011;38369;52.840;7.082;2022-12-07T01:25:07;15.65;;;4.10;;
52456;SDS011;38369;52.840;7.082;2022-12-07T01:27:33;10.05;;;2.97;;
52456;SDS011;38369;52.840;7.082;2022-12-07T01:29:59;9.93;;;2.53;;
52456;SDS011;38369;52.840;7.082;2022-12-07T01:32:26;9.05;;;2.70;;
52456;SDS011;38369;52.840;7.082;2022-12-07T01:34:52;8.45;;;2.28;;
52456;SDS011;38369;52.840;7.082;2022-12-07T01:37:18;4.55;;;2.15;;
52456;SDS011;38369;52.840;7.082;2022-12-07T01:39:44;7.03;;;2.35;;
52456;SDS011;38369;52.840;7.082;2022-12-07T01:42:13;5.78;;;2.58;;
52456;SDS011;38369;52.840;7.082;2022-12-07T01:47:24;9.48;;;2.85;;
52456;SDS011;38369;52.840;7.082;2022-12-07T01:49:50;9.48;;;2.60;;
52456;SDS011;38369;52.840;7.082;2022-12-07T01:54:45;11.20;;;4.60;;
52456;SDS011;38369;52.840;7.082;2022-12-07T01:57:13;10.85;;;2.70;;
52456;SDS011;38369;52.840;7.082;2022-12-07T01:59:40;8.95;;;3.13;;
52456;SDS011;38369;52.840;7.082;2022-12-07T02:02:08;11.23;;;2.97;;
52456;SDS011;38369;52.840;7.082;2022-12-07T02:04:35;5.00;;;2.60;;
52456;SDS011;38369;52.840;7.082;2022-12-07T02:07:02;12.68;;;3.00;;
52456;SDS011;38369;52.840;7.082;2022-12-07T02:09:28;4.57;;;2.03;;
52456;SDS011;38369;52.840;7.082;2022-12-07T02:11:54;11.40;;;2.90;;
52456;SDS011;38369;52.840;7.082;2022-12-07T02:14:20;10.30;;;2.75;;
52456;SDS011;38369;52.840;7.082;2022-12-07T02:21:52;6.53;;;3.47;;
52456;SDS011;38369;52.840;7.082;2022-12-07T02:27:07;7.50;;;2.65;;
52456;SDS011;38369;52.840;7.082;2022-12-07T02:34:47;14.10;;;3.63;;
52456;SDS011;38369;52.840;7.082;2022-12-07T02:37:19;8.15;;;2.40;;
52456;SDS011;38369;52.840;7.082;2022-12-07T02:39:51;10.13;;;3.15;;
52456;SDS011;38369;52.840;7.082;2022-12-07T02:42:21;11.15;;;2.50;;
52456;SDS011;38369;52.840;7.082;2022-12-07T02:44:50;7.45;;;2.08;;
52456;SDS011;38369;52.840;7.082;2022-12-07T02:47:17;8.55;;;2.55;;
52456;SDS011;38369;52.840;7.082;2022-12-07T02:49:44;5.18;;;2.28;;
52456;SDS011;38369;52.840;7.082;2022-12-07T02:52:10;5.57;;;1.95;;
52456;SDS011;38369;52.840;7.082;2022-12-07T02:54:36;8.95;;;2.70;;
52456;SDS011;38369;52.840;7.082;2022-12-07T02:59:44;4.30;;;1.95;;
52456;SDS011;38369;52.840;7.082;2022-12-07T03:09:44;3.40;;;1.88;;
52456;SDS011;38369;52.840;7.082;2022-12-07T03:12:14;3.00;;;1.80;;
52456;SDS011;38369;52.840;7.082;2022-12-07T03:14:47;5.80;;;2.05;;
52456;SDS011;38369;52.840;7.082;2022-12-07T03:17:16;6.13;;;2.38;;
52456;SDS011;38369;52.840;7.082;2022-12-07T03:19:43;10.82;;;2.78;;
52456;SDS011;38369;52.840;7.082;2022-12-07T03:22:11;8.27;;;1.83;;
52456;SDS011;38369;52.840;7.082;2022-12-07T03:24:59;7.90;;;2.10;;
52456;SDS011;38369;52.840;7.082;2022-12-07T03:29:52;16.42;;;2.28;;
52456;SDS011;38369;52.840;7.082;2022-12-07T03:32:21;7.35;;;1.73;;
52456;SDS011;38369;52.840;7.082;2022-12-07T03:34:58;6.57;;;1.65;;
52456;SDS011;38369;52.840;7.082;2022-12-07T03:37:29;10.35;;;1.83;;
52456;SDS011;38369;52.840;7.082;2022-12-07T03:40:08;5.60;;;2.40;;
52456;SDS011;38369;52.840;7.082;2022-12-07T03:42:37;3.72;;;1.80;;
52456;SDS011;38369;52.840;7.082;2022-12-07T03:45:04;8.30;;;1.85;;
52456;SDS011;38369;52.840;7.082;2022-12-07T03:47:33;5.10;;;2.10;;
52456;SDS011;38369;52.840;7.082;2022-12-07T03:52:40;12.07;;;2.15;;
52456;SDS011;38369;52.840;7.082;2022-12-07T03:55:12;4.45;;;2.10;;
52456;SDS011;38369;52.840;7.082;2022-12-07T03:57:40;7.32;;;2.53;;
52456;SDS011;38369;52.840;7.082;2022-12-07T04:00:07;9.35;;;3.72;;
52456;SDS011;38369;52.840;7.082;2022-12-07T04:02:33;4.00;;;2.08;;
52456;SDS011;38369;52.840;7.082;2022-12-07T04:04:59;8.63;;;2.70;;
52456;SDS011;38369;52.840;7.082;2022-12-07T04:07:25;8.30;;;3.13;;
52456;SDS011;38369;52.840;7.082;2022-12-07T04:09:52;5.78;;;2.25;;
52456;SDS011;38369;52.840;7.082;2022-12-07T04:12:20;8.07;;;2.53;;
52456;SDS011;38369;52.840;7.082;2022-12-07T04:14:46;5.32;;;1.90;;
52456;SDS011;38369;52.840;7.082;2022-12-07T04:17:12;5.20;;;2.60;;
52456;SDS011;38369;52.840;7.082;2022-12-07T04:19:38;4.93;;;1.90;;
52456;SDS011;38369;52.840;7.082;2022-12-07T04:22:04;5.57;;;1.90;;
52456;SDS011;38369;52.840;7.082;2022-12-07T04:24:30;5.82;;;1.70;;
52456;SDS011;38369;52.840;7.082;2022-12-07T04:26:57;5.30;;;1.80;;
52456;SDS011;38369;52.840;7.082;2022-12-07T04:29:23;3.85;;;2.10;;
52456;SDS011;38369;52.840;7.082;2022-12-07T04:31:49;12.95;;;4.05;;
52456;SDS011;38369;52.840;7.082;2022-12-07T04:34:15;8.05;;;1.98;;
52456;SDS011;38369;52.840;7.082;2022-12-07T04:36:41;6.20;;;1.83;;
52456;SDS011;38369;52.840;7.082;2022-12-07T04:39:08;2.90;;;1.60;;
52456;SDS011;38369;52.840;7.082;2022-12-07T04:41:34;10.25;;;1.80;;
52456;SDS011;38369;52.840;7.082;2022-12-07T04:44:01;8.23;;;2.33;;
52456;SDS011;38369;52.840;7.082;2022-12-07T04:46:28;5.53;;;1.73;;
52456;SDS011;38369;52.840;7.082;2022-12-07T04:48:54;6.00;;;1.90;;
52456;SDS011;38369;52.840;7.082;2022-12-07T04:51:27;6.88;;;1.60;;
52456;SDS011;38369;52.840;7.082;2022-12-07T04:53:54;6.95;;;2.00;;
52456;SDS011;38369;52.840;7.082;2022-12-07T04:56:20;10.77;;;2.33;;
52456;SDS011;38369;52.840;7.082;2022-12-07T04:58:47;9.10;;;2.78;;
52456;SDS011;38369;52.840;7.082;2022-12-07T05:01:16;6.25;;;2.50;;
52456;SDS011;38369;52.840;7.082;2022-12-07T05:03:42;6.78;;;2.03;;
52456;SDS011;38369;52.840;7.082;2022-12-07T05:06:09;8.38;;;2.60;;
52456;SDS011;38369;52.840;7.082;2022-12-07T05:08:35;6.38;;;1.55;;
52456;SDS011;38369;52.840;7.082;2022-12-07T05:11:02;5.97;;;1.63;;
52456;SDS011;38369;52.840;7.082;2022-12-07T05:13:29;5.53;;;2.03;;
52456;SDS011;38369;52.840;7.082;2022-12-07T05:15:55;6.85;;;2.30;;
52456;SDS011;38369;52.840;7.082;2022-12-07T05:18:21;8.10;;;2.17;;
52456;SDS011;38369;52.840;7.082;2022-12-07T05:20:47;9.23;;;2.28;;
52456;SDS011;38369;52.840;7.082;2022-12-07T05:23:13;9.68;;;2.13;;
52456;SDS011;38369;52.840;7.082;2022-12-07T05:25:39;6.22;;;1.83;;
52456;SDS011;38369;52.840;7.082;2022-12-07T05:28:05;33.78;;;5.00;;
52456;SDS011;38369;52.840;7.082;2022-12-07T05:30:32;12.32;;;2.58;;
52456;SDS011;38369;52.840;7.082;2022-12-07T05:32:58;7.13;;;2.33;;
52456;SDS011;38369;52.840;7.082;2022-12-07T05:35:24;7.55;;;3.00;;
52456;SDS011;38369;52.840;7.082;2022-12-07T05:37:50;11.13;;;4.47;;
52456;SDS011;38369;52.840;7.082;2022-12-07T05:40:16;5.63;;;2.13;;
52456;SDS011;38369;52.840;7.082;2022-12-07T05:42:43;12.55;;;2.72;;
52456;SDS011;38369;52.840;7.082;2022-12-07T05:45:10;7.07;;;2.97;;
52456;SDS011;38369;52.840;7.082;2022-12-07T05:47:36;14.23;;;4.18;;
52456;SDS011;38369;52.840;7.082;2022-12-07T05:50:03;7.45;;;2.50;;
52456;SDS011;38369;52.840;7.082;2022-12-07T05:52:29;11.30;;;3.67;;
52456;SDS011;38369;52.840;7.082;2022-12-07T05:54:55;11.57;;;3.30;;
52456;SDS011;38369;52.840;7.082;2022-12-07T05:57:21;6.40;;;1.90;;
52456;SDS011;38369;52.840;7.082;2022-12-07T05:59:47;8.63;;;3.20;;
52456;SDS011;38369;52.840;7.082;2022-12-07T06:02:14;8.50;;;2.40;;
52456;SDS011;38369;52.840;7.082;2022-12-07T06:04:42;6.40;;;2.45;;
52456;SDS011;38369;52.840;7.082;2022-12-07T06:07:08;5.53;;;2.08;;
52456;SDS011;38369;52.840;7.082;2022-12-07T06:09:34;13.18;;;2.80;;
52456;SDS011;38369;52.840;7.082;2022-12-07T06:12:00;8.13;;;2.50;;
52456;SDS011;38369;52.840;7.082;2022-12-07T06:14:45;7.93;;;2.42;;
52456;SDS011;38369;52.840;7.082;2022-12-07T06:17:12;9.43;;;2.38;;
52456;SDS011;38369;52.840;7.082;2022-12-07T06:19:38;8.40;;;1.98;;
52456;SDS011;38369;52.840;7.082;2022-12-07T06:22:05;5.88;;;2.33;;
52456;SDS011;38369;52.840;7.082;2022-12-07T06:24:32;9.63;;;2.75;;
52456;SDS011;38369;52.840;7.082;2022-12-07T06:26:58;7.53;;;2.58;;
52456;SDS011;38369;52.840;7.082;2022-12-07T06:29:24;6.85;;;2.55;;
52456;SDS011;38369;52.840;7.082;2022-12-07T06:31:50;6.63;;;2.47;;
52456;SDS011;38369;52.840;7.082;2022-12-07T06:34:18;6.20;;;2.42;;
52456;SDS011;38369;52.840;7.082;2022-12-07T06:36:44;5.97;;;2.47;;
52456;SDS011;38369;52.840;7.082;2022-12-07T06:39:11;6.05;;;2.13;;
52456;SDS011;38369;52.840;7.082;2022-12-07T06:41:37;9.32;;;2.25;;
52456;SDS011;38369;52.840;7.082;2022-12-07T06:44:04;7.95;;;2.10;;
52456;SDS011;38369;52.840;7.082;2022-12-07T06:46:30;8.77;;;2.15;;
52456;SDS011;38369;52.840;7.082;2022-12-07T06:48:56;11.57;;;2.47;;
52456;SDS011;38369;52.840;7.082;2022-12-07T06:51:22;4.57;;;2.00;;
52456;SDS011;38369;52.840;7.082;2022-12-07T06:53:48;5.47;;;2.47;;
52456;SDS011;38369;52.840;7.082;2022-12-07T06:56:14;15.68;;;3.80;;
52456;SDS011;38369;52.840;7.082;2022-12-07T06:58:41;9.57;;;2.15;;
52456;SDS011;38369;52.840;7.082;2022-12-07T15:29:56;3.40;;;2.00;;
52456;SDS011;38369;52.840;7.082;2022-12-07T15:32:22;4.68;;;1.70;;
52456;SDS011;38369;52.840;7.082;2022-12-07T15:34:48;3.00;;;1.83;;
52456;SDS011;38369;52.840;7.082;2022-12-07T15:37:15;4.53;;;1.98;;
52456;SDS011;38369;52.840;7.082;2022-12-07T15:39:41;6.70;;;1.98;;
52456;SDS011;38369;52.840;7.082;2022-12-07T15:42:07;2.85;;;1.70;;
52456;SDS011;38369;52.840;7.082;2022-12-07T15:44:33;3.95;;;2.35;;
52456;SDS011;38369;52.840;7.082;2022-12-07T15:47:17;4.30;;;2.10;;
52456;SDS011;38369;52.840;7.082;2022-12-07T15:49:44;5.90;;;2.05;;
52456;SDS011;38369;52.840;7.082;2022-12-07T15:52:10;2.40;;;1.60;;
52456;SDS011;38369;52.840;7.082;2022-12-07T15:54:36;5.20;;;2.30;;
52456;SDS011;38369;52.840;7.082;2022-12-07T15:57:02;5.22;;;1.83;;
52456;SDS011;38369;52.840;7.082;2022-12-07T15:59:28;5.15;;;1.77;;
52456;SDS011;38369;52.840;7.082;2022-12-07T16:01:54;3.08;;;1.67;;
52456;SDS011;38369;52.840;7.082;2022-12-07T16:04:20;5.68;;;2.85;;
52456;SDS011;38369;52.840;7.082;2022-12-07T16:06:46;4.88;;;2.15;;
52456;SDS011;38369;52.840;7.082;2022-12-07T16:09:12;4.97;;;1.73;;
52456;SDS011;38369;52.840;7.082;2022-12-07T16:11:39;4.03;;;1.80;;
52456;SDS011;38369;52.840;7.082;2022-12-07T16:14:05;2.63;;;1.50;;
52456;SDS011;38369;52.840;7.082;2022-12-07T16:16:31;3.70;;;1.98;;
52456;SDS011;38369;52.840;7.082;2022-12-07T16:18:57;5.38;;;1.58;;
52456;SDS011;38369;52.840;7.082;2022-12-07T16:21:23;2.08;;;1.30;;
52456;SDS011;38369;52.840;7.082;2022-12-07T16:23:49;3.00;;;1.45;;
52456;SDS011;38369;52.840;7.082;2022-12-07T16:26:19;4.35;;;1.58;;
52456;SDS011;38369;52.840;7.082;2022-12-07T16:31:13;5.07;;;2.13;;
52456;SDS011;38369;52.840;7.082;2022-12-07T16:33:40;5.95;;;2.47;;
52456;SDS011;38369;52.840;7.082;2022-12-07T16:36:07;4.68;;;2.13;;
52456;SDS011;38369;52.840;7.082;2022-12-07T16:38:33;17.08;;;3.63;;
52456;SDS011;38369;52.840;7.082;2022-12-07T16:40:59;5.05;;;2.00;;
52456;SDS011;38369;52.840;7.082;2022-12-07T16:43:25;7.80;;;2.05;;
52456;SDS011;38369;52.840;7.082;2022-12-07T16:45:51;1.75;;;1.63;;
52456;SDS011;38369;52.840;7.082;2022-12-07T16:48:18;3.22;;;2.00;;
52456;SDS011;38369;52.840;7.082;2022-12-07T16:50:44;5.60;;;1.90;;
52456;SDS011;38369;52.840;7.082;2022-12-07T16:53:12;3.50;;;2.45;;
52456;SDS011;38369;52.840;7.082;2022-12-07T16:55:43;3.50;;;2.40;;
52456;SDS011;38369;52.840;7.082;2022-12-07T16:58:09;5.13;;;2.13;;
52456;SDS011;38369;52.840;7.082;2022-12-07T17:00:35;4.32;;;2.47;;
52456;SDS011;38369;52.840;7.082;2022-12-07T17:03:02;6.40;;;3.70;;
52456;SDS011;38369;52.840;7.082;2022-12-07T17:05:29;4.65;;;2.33;;
52456;SDS011;38369;52.840;7.082;2022-12-07T17:07:55;6.10;;;2.50;;
52456;SDS011;38369;52.840;7.082;2022-12-07T17:10:21;8.23;;;2.42;;
52456;SDS011;38369;52.840;7.082;2022-12-07T17:12:48;12.45;;;3.35;;
52456;SDS011;38369;52.840;7.082;2022-12-07T17:15:14;11.13;;;2.75;;
52456;SDS011;38369;52.840;7.082;2022-12-07T17:17:50;6.25;;;2.00;;
52456;SDS011;38369;52.840;7.082;2022-12-07T17:20:17;6.35;;;2.35;;
52456;SDS011;38369;52.840;7.082;2022-12-07T17:22:43;5.60;;;3.22;;
52456;SDS011;38369;52.840;7.082;2022-12-07T17:25:09;11.10;;;2.15;;
52456;SDS011;38369;52.840;7.082;2022-12-07T17:27:36;4.55;;;2.67;;
52456;SDS011;38369;52.840;7.082;2022-12-07T17:30:03;9.35;;;2.00;;
52456;SDS011;38369;52.840;7.082;2022-12-07T17:32:29;7.03;;;2.63;;
52456;SDS011;38369;52.840;7.082;2022-12-07T17:34:55;4.05;;;1.80;;
52456;SDS011;38369;52.840;7.082;2022-12-07T17:37:21;6.22;;;2.10;;
52456;SDS011;38369;52.840;7.082;2022-12-07T17:39:47;8.63;;;2.80;;
52456;SDS011;38369;52.840;7.082;2022-12-07T17:42:14;4.03;;;2.83;;
52456;SDS011;38369;52.840;7.082;2022-12-07T17:44:59;5.00;;;2.45;;
52456;SDS011;38369;52.840;7.082;2022-12-07T17:47:25;8.55;;;2.53;;
52456;SDS011;38369;52.840;7.082;2022-12-07T17:49:51;3.55;;;2.10;;
52456;SDS011;38369;52.840;7.082;2022-12-07T17:52:17;2.85;;;1.80;;
52456;SDS011;38369;52.840;7.082;2022-12-07T17:55:02;6.13;;;2.03;;
52456;SDS011;38369;52.840;7.082;2022-12-07T17:57:28;6.55;;;2.10;;
52456;SDS011;38369;52.840;7.082;2022-12-07T17:59:54;4.22;;;2.30;;
52456;SDS011;38369;52.840;7.082;2022-12-07T18:02:20;6.55;;;2.05;;
52456;SDS011;38369;52.840;7.082;2022-12-07T18:04:46;3.55;;;1.90;;
52456;SDS011;38369;52.840;7.082;2022-12-07T18:07:12;1.98;;;1.75;;
52456;SDS011;38369;52.840;7.082;2022-12-07T18:09:39;7.40;;;2.47;;
52456;SDS011;38369;52.840;7.082;2022-12-07T18:12:06;4.55;;;1.60;;
52456;SDS011;38369;52.840;7.082;2022-12-07T18:14:32;6.35;;;1.65;;
52456;SDS011;38369;52.840;7.082;2022-12-07T18:16:58;4.55;;;1.65;;
52456;SDS011;38369;52.840;7.082;2022-12-07T18:19:24;3.67;;;1.55;;
52456;SDS011;38369;52.840;7.082;2022-12-07T18:21:50;5.85;;;2.10;;
52456;SDS011;38369;52.840;7.082;2022-12-07T18:24:16;5.60;;;2.88;;
52456;SDS011;38369;52.840;7.082;2022-12-07T18:26:43;3.05;;;1.92;;
52456;SDS011;38369;52.840;7.082;2022-12-07T18:29:12;6.15;;;2.60;;
52456;SDS011;38369;52.840;7.082;2022-12-07T18:31:38;8.95;;;3.53;;
52456;SDS011;38369;52.840;7.082;2022-12-07T18:34:05;8.93;;;2.50;;
52456;SDS011;38369;52.840;7.082;2022-12-07T18:36:36;4.53;;;2.60;;
52456;SDS011;38369;52.840;7.082;2022-12-07T18:39:03;3.97;;;2.35;;
52456;SDS011;38369;52.840;7.082;2022-12-07T18:41:31;5.80;;;2.63;;
52456;SDS011;38369;52.840;7.082;2022-12-07T18:43:57;2.88;;;1.88;;
52456;SDS011;38369;52.840;7.082;2022-12-07T18:46:23;2.13;;;1.90;;
52456;SDS011;38369;52.840;7.082;2022-12-07T18:48:49;9.10;;;3.10;;
52456;SDS011;38369;52.840;7.082;2022-12-07T18:51:16;6.78;;;2.70;;
52456;SDS011;38369;52.840;7.082;2022-12-07T18:53:43;3.65;;;2.80;;
52456;SDS011;38369;52.840;7.082;2022-12-07T18:56:13;6.90;;;3.10;;
52456;SDS011;38369;52.840;7.082;2022-12-07T18:58:40;5.32;;;3.45;;
52456;SDS011;38369;52.840;7.082;2022-12-07T19:01:25;6.60;;;3.70;;
52456;SDS011;38369;52.840;7.082;2022-12-07T19:03:51;7.13;;;3.25;;
52456;SDS011;38369;52.840;7.082;2022-12-07T19:06:17;5.60;;;3.30;;
52456;SDS011;38369;52.840;7.082;2022-12-07T19:08:43;10.13;;;3.80;;
52456;SDS011;38369;52.840;7.082;2022-12-07T19:11:16;10.27;;;4.40;;
52456;SDS011;38369;52.840;7.082;2022-12-07T19:14:01;5.72;;;3.53;;
52456;SDS011;38369;52.840;7.082;2022-12-07T19:16:27;7.07;;;4.10;;
52456;SDS011;38369;52.840;7.082;2022-12-07T19:18:53;5.13;;;3.45;;
52456;SDS011;38369;52.840;7.082;2022-12-07T19:21:19;3.92;;;3.08;;
52456;SDS011;38369;52.840;7.082;2022-12-07T19:23:45;7.45;;;3.58;;
52456;SDS011;38369;52.840;7.082;2022-12-07T19:26:11;10.55;;;3.67;;
52456;SDS011;38369;52.840;7.082;2022-12-07T19:28:37;7.25;;;3.92;;
52456;SDS011;38369;52.840;7.082;2022-12-07T19:31:04;5.03;;;3.03;;
52456;SDS011;38369;52.840;7.082;2022-12-07T19:33:30;5.60;;;3.53;;
52456;SDS011;38369;52.840;7.082;2022-12-07T19:35:56;8.15;;;3.63;;
52456;SDS011;38369;52.840;7.082;2022-12-07T19:38:22;8.63;;;3.10;;
52456;SDS011;38369;52.840;7.082;2022-12-07T19:40:48;8.90;;;4.10;;
52456;SDS011;38369;52.840;7.082;2022-12-07T19:43:14;5.72;;;3.13;;
52456;SDS011;38369;52.840;7.082;2022-12-07T19:45:40;5.57;;;3.45;;
52456;SDS011;38369;52.840;7.082;2022-12-07T19:48:06;8.13;;;4.05;;
52456;SDS011;38369;52.840;7.082;2022-12-07T19:50:33;10.48;;;4.45;;
52456;SDS011;38369;52.840;7.082;2022-12-07T19:52:59;8.48;;;5.20;;
52456;SDS011;38369;52.840;7.082;2022-12-07T19:55:25;7.00;;;4.05;;
52456;SDS011;38369;52.840;7.082;2022-12-07T19:57:51;4.80;;;3.78;;
52456;SDS011;38369;52.840;7.082;2022-12-07T20:00:17;7.50;;;4.50;;
52456;SDS011;38369;52.840;7.082;2022-12-07T20:02:43;8.07;;;3.53;;
52456;SDS011;38369;52.840;7.082;2022-12-07T20:05:09;8.68;;;4.28;;
52456;SDS011;38369;52.840;7.082;2022-12-07T20:07:35;7.18;;;3.95;;
52456;SDS011;38369;52.840;7.082;2022-12-07T20:10:04;7.47;;;4.07;;
52456;SDS011;38369;52.840;7.082;2022-12-07T20:12:30;11.18;;;4.30;;
52456;SDS011;38369;52.840;7.082;2022-12-07T20:15:15;7.20;;;4.07;;
52456;SDS011;38369;52.840;7.082;2022-12-07T20:17:41;10.50;;;4.72;;
52456;SDS011;38369;52.840;7.082;2022-12-07T20:20:07;5.10;;;3.85;;
52456;SDS011;38369;52.840;7.082;2022-12-07T20:22:33;6.43;;;4.38;;
52456;SDS011;38369;52.840;7.082;2022-12-07T20:24:59;8.30;;;4.22;;
52456;SDS011;38369;52.840;7.082;2022-12-07T20:27:25;7.38;;;4.28;;
52456;SDS011;38369;52.840;7.082;2022-12-07T20:29:51;12.15;;;4.25;;
52456;SDS011;38369;52.840;7.082;2022-12-07T20:32:17;11.07;;;3.85;;
52456;SDS011;38369;52.840;7.082;2022-12-07T20:34:43;8.13;;;4.40;;
52456;SDS011;38369;52.840;7.082;2022-12-07T20:37:10;6.40;;;4.20;;
52456;SDS011;38369;52.840;7.082;2022-12-07T20:39:37;6.10;;;4.03;;
52456;SDS011;38369;52.840;7.082;2022-12-07T20:42:03;6.82;;;3.40;;
52456;SDS011;38369;52.840;7.082;2022-12-07T20:44:47;9.02;;;4.65;;
52456;SDS011;38369;52.840;7.082;2022-12-07T20:47:13;9.10;;;3.63;;
52456;SDS011;38369;52.840;7.082;2022-12-07T20:49:40;10.18;;;3.33;;
52456;SDS011;38369;52.840;7.082;2022-12-07T20:52:06;6.95;;;3.20;;
52456;SDS011;38369;52.840;7.082;2022-12-07T20:54:32;5.90;;;3.00;;
52456;SDS011;38369;52.840;7.082;2022-12-07T20:56:58;7.18;;;3.00;;
52456;SDS011;38369;52.840;7.082;2022-12-07T20:59:24;6.07;;;3.05;;
52456;SDS011;38369;52.840;7.082;2022-12-07T21:01:50;5.95;;;2.83;;
52456;SDS011;38369;52.840;7.082;2022-12-07T21:04:17;9.73;;;3.38;;
52456;SDS011;38369;52.840;7.082;2022-12-07T21:06:43;4.90;;;3.15;;
52456;SDS011;38369;52.840;7.082;2022-12-07T21:09:09;7.88;;;3.53;;
52456;SDS011;38369;52.840;7.082;2022-12-07T21:11:36;5.78;;;2.65;;
52456;SDS011;38369;52.840;7.082;2022-12-07T21:14:03;10.70;;;3.15;;
52456;SDS011;38369;52.840;7.082;2022-12-07T21:16:29;5.97;;;3.53;;
52456;SDS011;38369;52.840;7.082;2022-12-07T21:18:57;5.97;;;3.22;;
52456;SDS011;38369;52.840;7.082;2022-12-07T21:21:24;6.82;;;3.28;;
52456;SDS011;38369;52.840;7.082;2022-12-07T21:23:51;5.43;;;2.97;;
52456;SDS011;38369;52.840;7.082;2022-12-07T21:26:18;10.70;;;3.05;;
52456;SDS011;38369;52.840;7.082;2022-12-07T21:28:45;10.38;;;3.35;;
52456;SDS011;38369;52.840;7.082;2022-12-07T21:31:11;3.80;;;3.08;;
52456;SDS011;38369;52.840;7.082;2022-12-07T21:33:37;6.85;;;3.20;;
52456;SDS011;38369;52.840;7.082;2022-12-07T21:36:04;8.15;;;3.38;;
52456;SDS011;38369;52.840;7.082;2022-12-07T21:38:30;7.78;;;2.88;;
52456;SDS011;38369;52.840;7.082;2022-12-07T21:40:56;7.68;;;3.10;;
52456;SDS011;38369;52.840;7.082;2022-12-07T21:43:22;5.35;;;3.13;;
52456;SDS011;38369;52.840;7.082;2022-12-07T21:45:52;8.40;;;3.88;;
52456;SDS011;38369;52.840;7.082;2022-12-07T21:48:18;5.43;;;4.00;;
52456;SDS011;38369;52.840;7.082;2022-12-07T21:50:45;6.78;;;3.50;;
52456;SDS011;38369;52.840;7.082;2022-12-07T21:53:11;8.73;;;3.03;;
52456;SDS011;38369;52.840;7.082;2022-12-07T21:55:40;6.28;;;3.50;;
52456;SDS011;38369;52.840;7.082;2022-12-07T21:58:06;4.38;;;3.22;;
52456;SDS011;38369;52.840;7.082;2022-12-07T22:00:32;9.90;;;4.65;;
52456;SDS011;38369;52.840;7.082;2022-12-07T22:02:59;4.97;;;3.33;;
52456;SDS011;38369;52.840;7.082;2022-12-07T22:05:25;11.52;;;4.95;;
52456;SDS011;38369;52.840;7.082;2022-12-07T22:07:51;9.55;;;3.50;;
52456;SDS011;38369;52.840;7.082;2022-12-07T22:10:17;5.13;;;3.67;;
52456;SDS011;38369;52.840;7.082;2022-12-07T22:12:58;7.40;;;3.97;;
52456;SDS011;38369;52.840;7.082;2022-12-07T22:15:25;8.15;;;4.70;;
52456;SDS011;38369;52.840;7.082;2022-12-07T22:17:51;6.78;;;3.80;;
52456;SDS011;38369;52.840;7.082;2022-12-07T22:20:18;6.93;;;3.72;;
52456;SDS011;38369;52.840;7.082;2022-12-07T22:22:44;5.45;;;3.55;;
52456;SDS011;38369;52.840;7.082;2022-12-07T22:25:11;12.13;;;5.47;;
52456;SDS011;38369;52.840;7.082;2022-12-07T22:27:37;9.93;;;4.18;;
52456;SDS011;38369;52.840;7.082;2022-12-07T22:30:04;8.32;;;3.72;;
52456;SDS011;38369;52.840;7.082;2022-12-07T22:32:31;11.82;;;3.90;;
52456;SDS011;38369;52.840;7.082;2022-12-07T22:34:57;9.60;;;3.53;;
52456;SDS011;38369;52.840;7.082;2022-12-07T22:37:23;10.88;;;3.70;;
52456;SDS011;38369;52.840;7.082;2022-12-07T22:39:49;9.45;;;4.65;;
52456;SDS011;38369;52.840;7.082;2022-12-07T22:42:15;7.95;;;4.25;;
52456;SDS011;38369;52.840;7.082;2022-12-07T22:44:41;7.57;;;3.58;;
52456;SDS011;38369;52.840;7.082;2022-12-07T22:47:07;8.45;;;3.75;;
52456;SDS011;38369;52.840;7.082;2022-12-07T22:49:33;8.18;;;4.18;;
52456;SDS011;38369;52.840;7.082;2022-12-07T22:51:59;7.05;;;3.97;;
52456;SDS011;38369;52.840;7.082;2022-12-07T22:54:25;9.07;;;3.95;;
52456;SDS011;38369;52.840;7.082;2022-12-07T22:56:51;10.05;;;4.03;;
52456;SDS011;38369;52.840;7.082;2022-12-07T22:59:17;14.63;;;4.35;;
52456;SDS011;38369;52.840;7.082;2022-12-07T23:01:43;11.43;;;4.35;;
52456;SDS011;38369;52.840;7.082;2022-12-07T23:04:09;8.35;;;4.47;;
52456;SDS011;38369;52.840;7.082;2022-12-07T23:06:35;7.10;;;4.35;;
52456;SDS011;38369;52.840;7.082;2022-12-07T23:09:03;15.38;;;4.57;;
52456;SDS011;38369;52.840;7.082;2022-12-07T23:11:30;6.22;;;4.38;;
52456;SDS011;38369;52.840;7.082;2022-12-07T23:14:21;8.73;;;4.97;;
52456;SDS011;38369;52.840;7.082;2022-12-07T23:16:47;6.40;;;4.20;;
52456;SDS011;38369;52.840;7.082;2022-12-07T23:19:13;9.52;;;3.80;;
52456;SDS011;38369;52.840;7.082;2022-12-07T23:21:39;8.27;;;4.50;;
52456;SDS011;38369;52.840;7.082;2022-12-07T23:24:07;6.65;;;4.00;;
52456;SDS011;38369;52.840;7.082;2022-12-07T23:26:34;8.23;;;4.53;;
52456;SDS011;38369;52.840;7.082;2022-12-07T23:29:00;9.00;;;3.70;;
52456;SDS011;38369;52.840;7.082;2022-12-07T23:31:26;20.10;;;5.75;;
52456;SDS011;38369;52.840;7.082;2022-12-07T23:33:52;10.77;;;3.90;;
52456;SDS011;38369;52.840;7.082;2022-12-07T23:36:20;11.40;;;4.53;;
52456;SDS011;38369;52.840;7.082;2022-12-07T23:38:47;10.98;;;5.05;;
52456;SDS011;38369;52.840;7.082;2022-12-07T23:41:18;6.93;;;3.53;;
52456;SDS011;38369;52.840;7.082;2022-12-07T23:43:45;9.52;;;4.00;;
52456;SDS011;38369;52.840;7.082;2022-12-07T23:46:15;11.90;;;3.85;;
52456;SDS011;38369;52.840;7.082;2022-12-07T23:48:41;9.05;;;4.00;;
52456;SDS011;38369;52.840;7.082;2022-12-07T23:51:09;8.43;;;3.70;;